sensor_id;sensor_type;location;lat;lon;timestamp;P1;durP1;ratioP1;P2;durP2;ratioP2
13660;SDS011;6903;49.480;11.102;2022-08-19T00:02:12;32.72;;;29.23;;
13660;SDS011;6903;49.480;11.102;2022-08-19T00:04:37;58.97;;;46.70;;
13660;SDS011;6903;49.480;11.102;2022-08-19T00:07:03;39.85;;;35.50;;
13660;SDS011;6903;49.480;11.102;2022-08-19T00:09:30;59.40;;;47.45;;
13660;SDS011;6903;49.480;11.102;2022-08-19T00:11:56;36.38;;;32.25;;
13660;SDS011;6903;49.480;11.102;2022-08-19T00:14:23;47.53;;;41.08;;
13660;SDS011;6903;49.480;11.102;2022-08-19T00:16:49;50.33;;;43.13;;
13660;SDS011;6903;49.480;11.102;2022-08-19T00:19:18;55.35;;;46.72;;
13660;SDS011;6903;49.480;11.102;2022-08-19T00:21:44;58.25;;;46.75;;
13660;SDS011;6903;49.480;11.102;2022-08-19T00:24:10;35.28;;;31.50;;
13660;SDS011;6903;49.480;11.102;2022-08-19T00:26:37;48.65;;;40.10;;
13660;SDS011;6903;49.480;11.102;2022-08-19T00:29:04;46.28;;;39.88;;
13660;SDS011;6903;49.480;11.102;2022-08-19T00:31:31;50.55;;;41.45;;
13660;SDS011;6903;49.480;11.102;2022-08-19T00:33:57;64.35;;;49.70;;
13660;SDS011;6903;49.480;11.102;2022-08-19T00:36:23;72.25;;;52.80;;
13660;SDS011;6903;49.480;11.102;2022-08-19T00:38:48;71.60;;;52.25;;
13660;SDS011;6903;49.480;11.102;2022-08-19T00:41:17;76.93;;;55.35;;
13660;SDS011;6903;49.480;11.102;2022-08-19T00:44:02;77.30;;;55.33;;
13660;SDS011;6903;49.480;11.102;2022-08-19T00:46:34;74.78;;;52.38;;
13660;SDS011;6903;49.480;11.102;2022-08-19T00:49:02;76.88;;;52.72;;
13660;SDS011;6903;49.480;11.102;2022-08-19T00:51:34;72.03;;;52.35;;
13660;SDS011;6903;49.480;11.102;2022-08-19T00:54:01;66.40;;;51.80;;
13660;SDS011;6903;49.480;11.102;2022-08-19T00:56:27;68.95;;;50.25;;
13660;SDS011;6903;49.480;11.102;2022-08-19T00:58:54;68.68;;;51.75;;
13660;SDS011;6903;49.480;11.102;2022-08-19T01:01:23;66.35;;;48.67;;
13660;SDS011;6903;49.480;11.102;2022-08-19T01:03:48;63.33;;;47.95;;
13660;SDS011;6903;49.480;11.102;2022-08-19T01:06:13;63.78;;;47.30;;
13660;SDS011;6903;49.480;11.102;2022-08-19T01:08:39;58.08;;;46.20;;
13660;SDS011;6903;49.480;11.102;2022-08-19T01:11:05;54.85;;;45.40;;
13660;SDS011;6903;49.480;11.102;2022-08-19T01:13:32;60.45;;;47.83;;
13660;SDS011;6903;49.480;11.102;2022-08-19T01:16:05;53.10;;;44.38;;
13660;SDS011;6903;49.480;11.102;2022-08-19T01:18:38;61.35;;;48.00;;
13660;SDS011;6903;49.480;11.102;2022-08-19T01:21:12;33.72;;;29.88;;
13660;SDS011;6903;49.480;11.102;2022-08-19T01:23:49;45.30;;;38.10;;
13660;SDS011;6903;49.480;11.102;2022-08-19T01:26:17;57.53;;;45.78;;
13660;SDS011;6903;49.480;11.102;2022-08-19T01:28:45;63.63;;;46.45;;
13660;SDS011;6903;49.480;11.102;2022-08-19T01:31:13;62.15;;;47.97;;
13660;SDS011;6903;49.480;11.102;2022-08-19T01:33:41;62.38;;;47.33;;
13660;SDS011;6903;49.480;11.102;2022-08-19T01:36:11;48.40;;;41.28;;
13660;SDS011;6903;49.480;11.102;2022-08-19T01:38:40;51.05;;;42.00;;
13660;SDS011;6903;49.480;11.102;2022-08-19T01:41:08;45.08;;;38.92;;
13660;SDS011;6903;49.480;11.102;2022-08-19T01:43:34;34.75;;;31.05;;
13660;SDS011;6903;49.480;11.102;2022-08-19T01:46:01;54.55;;;45.42;;
13660;SDS011;6903;49.480;11.102;2022-08-19T01:48:32;56.40;;;44.55;;
13660;SDS011;6903;49.480;11.102;2022-08-19T01:50:58;58.53;;;45.70;;
13660;SDS011;6903;49.480;11.102;2022-08-19T01:53:24;49.63;;;41.55;;
13660;SDS011;6903;49.480;11.102;2022-08-19T01:55:49;48.00;;;39.47;;
13660;SDS011;6903;49.480;11.102;2022-08-19T01:58:17;32.03;;;28.65;;
13660;SDS011;6903;49.480;11.102;2022-08-19T02:00:45;32.33;;;28.52;;
13660;SDS011;6903;49.480;11.102;2022-08-19T02:03:12;41.47;;;36.92;;
13660;SDS011;6903;49.480;11.102;2022-08-19T02:05:38;51.28;;;42.83;;
13660;SDS011;6903;49.480;11.102;2022-08-19T02:08:04;39.28;;;34.83;;
13660;SDS011;6903;49.480;11.102;2022-08-19T02:10:30;45.65;;;39.97;;
13660;SDS011;6903;49.480;11.102;2022-08-19T02:12:56;52.30;;;44.17;;
13660;SDS011;6903;49.480;11.102;2022-08-19T02:15:22;55.35;;;45.42;;
13660;SDS011;6903;49.480;11.102;2022-08-19T02:17:47;54.55;;;44.58;;
13660;SDS011;6903;49.480;11.102;2022-08-19T02:20:13;42.88;;;35.95;;
13660;SDS011;6903;49.480;11.102;2022-08-19T02:22:40;52.85;;;43.67;;
13660;SDS011;6903;49.480;11.102;2022-08-19T02:25:07;53.40;;;44.05;;
13660;SDS011;6903;49.480;11.102;2022-08-19T02:27:34;53.78;;;43.47;;
13660;SDS011;6903;49.480;11.102;2022-08-19T02:29:59;53.97;;;43.53;;
13660;SDS011;6903;49.480;11.102;2022-08-19T02:32:25;57.63;;;45.75;;
13660;SDS011;6903;49.480;11.102;2022-08-19T02:34:51;53.83;;;42.53;;
13660;SDS011;6903;49.480;11.102;2022-08-19T02:37:16;51.50;;;43.92;;
13660;SDS011;6903;49.480;11.102;2022-08-19T02:40:00;56.85;;;45.25;;
13660;SDS011;6903;49.480;11.102;2022-08-19T02:42:26;57.08;;;44.20;;
13660;SDS011;6903;49.480;11.102;2022-08-19T02:44:51;38.80;;;34.60;;
13660;SDS011;6903;49.480;11.102;2022-08-19T02:47:17;53.35;;;44.35;;
13660;SDS011;6903;49.480;11.102;2022-08-19T02:49:44;45.72;;;38.92;;
13660;SDS011;6903;49.480;11.102;2022-08-19T02:52:10;49.70;;;42.72;;
13660;SDS011;6903;49.480;11.102;2022-08-19T02:54:36;45.38;;;38.47;;
13660;SDS011;6903;49.480;11.102;2022-08-19T02:57:03;54.97;;;44.90;;
13660;SDS011;6903;49.480;11.102;2022-08-19T02:59:32;55.50;;;45.25;;
13660;SDS011;6903;49.480;11.102;2022-08-19T03:01:57;55.63;;;41.83;;
13660;SDS011;6903;49.480;11.102;2022-08-19T03:04:23;58.70;;;45.30;;
13660;SDS011;6903;49.480;11.102;2022-08-19T03:06:49;46.80;;;38.97;;
13660;SDS011;6903;49.480;11.102;2022-08-19T03:09:14;45.53;;;39.10;;
13660;SDS011;6903;49.480;11.102;2022-08-19T03:11:41;48.45;;;40.33;;
13660;SDS011;6903;49.480;11.102;2022-08-19T03:14:07;51.10;;;41.33;;
13660;SDS011;6903;49.480;11.102;2022-08-19T03:16:35;49.85;;;41.17;;
13660;SDS011;6903;49.480;11.102;2022-08-19T03:19:06;45.50;;;38.80;;
13660;SDS011;6903;49.480;11.102;2022-08-19T03:21:32;40.83;;;35.38;;
13660;SDS011;6903;49.480;11.102;2022-08-19T03:24:03;41.35;;;36.40;;
13660;SDS011;6903;49.480;11.102;2022-08-19T03:26:31;40.40;;;36.10;;
13660;SDS011;6903;49.480;11.102;2022-08-19T03:29:00;34.55;;;29.92;;
13660;SDS011;6903;49.480;11.102;2022-08-19T03:31:26;37.97;;;33.42;;
13660;SDS011;6903;49.480;11.102;2022-08-19T03:33:52;38.97;;;34.90;;
13660;SDS011;6903;49.480;11.102;2022-08-19T03:36:19;37.17;;;32.38;;
13660;SDS011;6903;49.480;11.102;2022-08-19T03:38:48;39.05;;;33.80;;
13660;SDS011;6903;49.480;11.102;2022-08-19T03:41:17;29.65;;;26.63;;
13660;SDS011;6903;49.480;11.102;2022-08-19T03:43:45;34.30;;;30.40;;
13660;SDS011;6903;49.480;11.102;2022-08-19T03:46:19;24.15;;;21.58;;
13660;SDS011;6903;49.480;11.102;2022-08-19T03:48:50;32.33;;;28.90;;
13660;SDS011;6903;49.480;11.102;2022-08-19T03:51:26;36.72;;;32.67;;
13660;SDS011;6903;49.480;11.102;2022-08-19T03:53:54;36.67;;;32.78;;
13660;SDS011;6903;49.480;11.102;2022-08-19T03:56:20;36.17;;;32.33;;
13660;SDS011;6903;49.480;11.102;2022-08-19T03:58:46;40.88;;;35.15;;
13660;SDS011;6903;49.480;11.102;2022-08-19T04:01:13;40.97;;;36.45;;
13660;SDS011;6903;49.480;11.102;2022-08-19T04:03:41;43.22;;;36.67;;
13660;SDS011;6903;49.480;11.102;2022-08-19T04:06:10;42.35;;;37.75;;
13660;SDS011;6903;49.480;11.102;2022-08-19T04:08:39;42.70;;;37.17;;
13660;SDS011;6903;49.480;11.102;2022-08-19T04:11:06;45.78;;;39.42;;
13660;SDS011;6903;49.480;11.102;2022-08-19T04:13:33;42.42;;;37.60;;
13660;SDS011;6903;49.480;11.102;2022-08-19T04:15:59;42.78;;;37.10;;
13660;SDS011;6903;49.480;11.102;2022-08-19T04:18:24;42.38;;;36.15;;
13660;SDS011;6903;49.480;11.102;2022-08-19T04:20:50;39.67;;;33.90;;
13660;SDS011;6903;49.480;11.102;2022-08-19T04:23:16;40.55;;;35.95;;
13660;SDS011;6903;49.480;11.102;2022-08-19T04:25:42;42.28;;;37.45;;
13660;SDS011;6903;49.480;11.102;2022-08-19T04:28:09;45.63;;;36.65;;
13660;SDS011;6903;49.480;11.102;2022-08-19T04:30:37;40.38;;;35.67;;
13660;SDS011;6903;49.480;11.102;2022-08-19T04:33:08;40.08;;;34.90;;
13660;SDS011;6903;49.480;11.102;2022-08-19T04:35:34;40.13;;;35.85;;
13660;SDS011;6903;49.480;11.102;2022-08-19T04:38:01;41.67;;;36.78;;
13660;SDS011;6903;49.480;11.102;2022-08-19T04:40:27;40.00;;;35.22;;
13660;SDS011;6903;49.480;11.102;2022-08-19T04:43:11;41.42;;;35.85;;
13660;SDS011;6903;49.480;11.102;2022-08-19T04:45:38;42.03;;;35.60;;
13660;SDS011;6903;49.480;11.102;2022-08-19T04:48:04;38.17;;;34.03;;
13660;SDS011;6903;49.480;11.102;2022-08-19T04:50:29;38.70;;;33.65;;
13660;SDS011;6903;49.480;11.102;2022-08-19T04:52:55;38.63;;;32.55;;
13660;SDS011;6903;49.480;11.102;2022-08-19T04:55:20;35.25;;;31.45;;
13660;SDS011;6903;49.480;11.102;2022-08-19T04:57:46;38.78;;;34.58;;
13660;SDS011;6903;49.480;11.102;2022-08-19T05:00:11;34.55;;;29.92;;
13660;SDS011;6903;49.480;11.102;2022-08-19T05:02:37;37.40;;;32.28;;
13660;SDS011;6903;49.480;11.102;2022-08-19T05:05:03;35.92;;;32.22;;
13660;SDS011;6903;49.480;11.102;2022-08-19T05:07:30;35.53;;;31.60;;
13660;SDS011;6903;49.480;11.102;2022-08-19T05:09:56;34.88;;;31.33;;
13660;SDS011;6903;49.480;11.102;2022-08-19T05:12:21;36.25;;;32.40;;
13660;SDS011;6903;49.480;11.102;2022-08-19T05:14:47;37.88;;;32.72;;
13660;SDS011;6903;49.480;11.102;2022-08-19T05:17:13;33.67;;;30.02;;
13660;SDS011;6903;49.480;11.102;2022-08-19T05:19:39;35.45;;;31.63;;
13660;SDS011;6903;49.480;11.102;2022-08-19T05:22:22;33.38;;;29.88;;
13660;SDS011;6903;49.480;11.102;2022-08-19T05:24:57;31.00;;;27.73;;
13660;SDS011;6903;49.480;11.102;2022-08-19T05:27:23;35.47;;;31.67;;
13660;SDS011;6903;49.480;11.102;2022-08-19T05:29:49;27.02;;;24.27;;
13660;SDS011;6903;49.480;11.102;2022-08-19T05:32:14;32.92;;;29.45;;
13660;SDS011;6903;49.480;11.102;2022-08-19T05:34:39;34.22;;;30.40;;
13660;SDS011;6903;49.480;11.102;2022-08-19T05:37:05;30.90;;;27.52;;
13660;SDS011;6903;49.480;11.102;2022-08-19T05:39:33;34.83;;;31.05;;
13660;SDS011;6903;49.480;11.102;2022-08-19T05:42:03;26.77;;;23.92;;
13660;SDS011;6903;49.480;11.102;2022-08-19T05:44:32;25.73;;;23.13;;
13660;SDS011;6903;49.480;11.102;2022-08-19T05:46:59;27.50;;;24.65;;
13660;SDS011;6903;49.480;11.102;2022-08-19T05:49:27;31.50;;;28.30;;
13660;SDS011;6903;49.480;11.102;2022-08-19T05:51:53;32.85;;;29.48;;
13660;SDS011;6903;49.480;11.102;2022-08-19T05:54:20;30.02;;;26.80;;
13660;SDS011;6903;49.480;11.102;2022-08-19T05:56:48;28.80;;;25.90;;
13660;SDS011;6903;49.480;11.102;2022-08-19T05:59:15;26.10;;;23.40;;
13660;SDS011;6903;49.480;11.102;2022-08-19T06:01:42;26.42;;;23.73;;
13660;SDS011;6903;49.480;11.102;2022-08-19T06:04:10;27.17;;;24.48;;
13660;SDS011;6903;49.480;11.102;2022-08-19T06:06:36;23.65;;;21.38;;
13660;SDS011;6903;49.480;11.102;2022-08-19T06:09:02;24.52;;;21.90;;
13660;SDS011;6903;49.480;11.102;2022-08-19T06:11:34;22.83;;;20.58;;
13660;SDS011;6903;49.480;11.102;2022-08-19T06:14:01;21.50;;;19.20;;
13660;SDS011;6903;49.480;11.102;2022-08-19T06:16:28;23.02;;;20.90;;
13660;SDS011;6903;49.480;11.102;2022-08-19T06:19:00;22.25;;;20.15;;
13660;SDS011;6903;49.480;11.102;2022-08-19T06:21:28;21.35;;;19.52;;
13660;SDS011;6903;49.480;11.102;2022-08-19T06:23:55;21.73;;;19.73;;
13660;SDS011;6903;49.480;11.102;2022-08-19T06:26:21;19.23;;;17.42;;
13660;SDS011;6903;49.480;11.102;2022-08-19T06:28:47;17.88;;;16.38;;
13660;SDS011;6903;49.480;11.102;2022-08-19T06:31:13;18.85;;;16.90;;
13660;SDS011;6903;49.480;11.102;2022-08-19T06:33:41;16.77;;;15.18;;
13660;SDS011;6903;49.480;11.102;2022-08-19T06:36:43;15.85;;;14.50;;
13660;SDS011;6903;49.480;11.102;2022-08-19T06:39:08;15.60;;;14.18;;
13660;SDS011;6903;49.480;11.102;2022-08-19T06:41:40;14.05;;;12.82;;
13660;SDS011;6903;49.480;11.102;2022-08-19T06:44:07;15.55;;;14.15;;
13660;SDS011;6903;49.480;11.102;2022-08-19T06:46:32;16.90;;;15.30;;
13660;SDS011;6903;49.480;11.102;2022-08-19T06:48:58;16.08;;;14.68;;
13660;SDS011;6903;49.480;11.102;2022-08-19T06:51:24;17.65;;;16.05;;
13660;SDS011;6903;49.480;11.102;2022-08-19T06:53:52;16.05;;;14.65;;
13660;SDS011;6903;49.480;11.102;2022-08-19T06:56:20;16.77;;;15.27;;
13660;SDS011;6903;49.480;11.102;2022-08-19T06:58:49;14.57;;;13.07;;
13660;SDS011;6903;49.480;11.102;2022-08-19T07:01:17;14.02;;;12.82;;
13660;SDS011;6903;49.480;11.102;2022-08-19T07:03:43;13.90;;;12.63;;
13660;SDS011;6903;49.480;11.102;2022-08-19T07:06:10;14.45;;;13.05;;
13660;SDS011;6903;49.480;11.102;2022-08-19T07:08:39;14.23;;;12.85;;
13660;SDS011;6903;49.480;11.102;2022-08-19T07:11:08;14.57;;;13.02;;
13660;SDS011;6903;49.480;11.102;2022-08-19T07:13:36;15.35;;;13.95;;
13660;SDS011;6903;49.480;11.102;2022-08-19T07:16:09;14.40;;;13.10;;
13660;SDS011;6903;49.480;11.102;2022-08-19T07:18:37;14.90;;;13.50;;
13660;SDS011;6903;49.480;11.102;2022-08-19T07:23:29;16.77;;;15.15;;
13660;SDS011;6903;49.480;11.102;2022-08-19T07:25:54;17.80;;;16.17;;
13660;SDS011;6903;49.480;11.102;2022-08-19T07:28:20;18.05;;;16.42;;
13660;SDS011;6903;49.480;11.102;2022-08-19T07:30:45;17.27;;;15.75;;
13660;SDS011;6903;49.480;11.102;2022-08-19T07:33:11;18.38;;;16.58;;
13660;SDS011;6903;49.480;11.102;2022-08-19T07:35:36;18.67;;;16.77;;
13660;SDS011;6903;49.480;11.102;2022-08-19T07:38:01;17.23;;;15.55;;
13660;SDS011;6903;49.480;11.102;2022-08-19T07:40:28;17.92;;;16.33;;
13660;SDS011;6903;49.480;11.102;2022-08-19T07:42:54;17.80;;;16.10;;
13660;SDS011;6903;49.480;11.102;2022-08-19T07:45:19;17.52;;;15.82;;
13660;SDS011;6903;49.480;11.102;2022-08-19T07:47:44;16.95;;;15.25;;
13660;SDS011;6903;49.480;11.102;2022-08-19T07:50:10;16.52;;;14.90;;
13660;SDS011;6903;49.480;11.102;2022-08-19T07:52:36;16.65;;;15.15;;
13660;SDS011;6903;49.480;11.102;2022-08-19T07:55:05;18.27;;;16.58;;
13660;SDS011;6903;49.480;11.102;2022-08-19T07:57:35;18.75;;;16.85;;
13660;SDS011;6903;49.480;11.102;2022-08-19T08:00:00;19.08;;;17.27;;
13660;SDS011;6903;49.480;11.102;2022-08-19T08:02:26;18.80;;;17.05;;
13660;SDS011;6903;49.480;11.102;2022-08-19T08:04:52;19.63;;;17.20;;
13660;SDS011;6903;49.480;11.102;2022-08-19T08:07:36;18.02;;;16.20;;
13660;SDS011;6903;49.480;11.102;2022-08-19T08:10:19;19.35;;;17.45;;
13660;SDS011;6903;49.480;11.102;2022-08-19T08:12:45;19.05;;;17.05;;
13660;SDS011;6903;49.480;11.102;2022-08-19T08:15:11;18.15;;;16.35;;
13660;SDS011;6903;49.480;11.102;2022-08-19T08:17:43;19.42;;;17.45;;
13660;SDS011;6903;49.480;11.102;2022-08-19T08:20:09;20.15;;;17.50;;
13660;SDS011;6903;49.480;11.102;2022-08-19T08:22:35;18.27;;;16.40;;
13660;SDS011;6903;49.480;11.102;2022-08-19T08:25:21;19.80;;;17.80;;
13660;SDS011;6903;49.480;11.102;2022-08-19T08:27:48;18.92;;;17.13;;
13660;SDS011;6903;49.480;11.102;2022-08-19T08:30:19;19.90;;;17.83;;
13660;SDS011;6903;49.480;11.102;2022-08-19T08:32:46;18.52;;;16.70;;
13660;SDS011;6903;49.480;11.102;2022-08-19T08:35:13;17.65;;;15.90;;
13660;SDS011;6903;49.480;11.102;2022-08-19T08:37:41;18.63;;;16.77;;
13660;SDS011;6903;49.480;11.102;2022-08-19T08:40:13;17.55;;;15.85;;
13660;SDS011;6903;49.480;11.102;2022-08-19T08:42:51;19.42;;;17.35;;
13660;SDS011;6903;49.480;11.102;2022-08-19T08:45:47;18.52;;;16.63;;
13660;SDS011;6903;49.480;11.102;2022-08-19T08:49:01;16.40;;;14.80;;
13660;SDS011;6903;49.480;11.102;2022-08-19T08:51:25;16.45;;;14.82;;
13660;SDS011;6903;49.480;11.102;2022-08-19T08:53:58;15.90;;;14.38;;
13660;SDS011;6903;49.480;11.102;2022-08-19T08:56:24;18.40;;;16.60;;
13660;SDS011;6903;49.480;11.102;2022-08-19T08:59:04;18.52;;;16.63;;
13660;SDS011;6903;49.480;11.102;2022-08-19T09:01:35;18.98;;;16.98;;
13660;SDS011;6903;49.480;11.102;2022-08-19T09:04:05;20.58;;;18.48;;
13660;SDS011;6903;49.480;11.102;2022-08-19T09:06:55;22.08;;;19.83;;
13660;SDS011;6903;49.480;11.102;2022-08-19T09:09:39;23.88;;;21.42;;
13660;SDS011;6903;49.480;11.102;2022-08-19T09:12:10;25.08;;;21.90;;
13660;SDS011;6903;49.480;11.102;2022-08-19T09:15:00;20.67;;;18.63;;
13660;SDS011;6903;49.480;11.102;2022-08-19T09:17:29;25.17;;;22.65;;
13660;SDS011;6903;49.480;11.102;2022-08-19T09:20:00;22.55;;;20.25;;
13660;SDS011;6903;49.480;11.102;2022-08-19T09:22:34;24.88;;;22.25;;
13660;SDS011;6903;49.480;11.102;2022-08-19T09:25:01;25.17;;;22.58;;
13660;SDS011;6903;49.480;11.102;2022-08-19T09:27:26;25.20;;;22.50;;
13660;SDS011;6903;49.480;11.102;2022-08-19T09:29:53;24.48;;;21.90;;
13660;SDS011;6903;49.480;11.102;2022-08-19T09:32:19;26.45;;;22.85;;
13660;SDS011;6903;49.480;11.102;2022-08-19T09:34:46;25.50;;;22.80;;
13660;SDS011;6903;49.480;11.102;2022-08-19T09:37:11;23.65;;;21.17;;
13660;SDS011;6903;49.480;11.102;2022-08-19T09:39:38;24.05;;;21.15;;
13660;SDS011;6903;49.480;11.102;2022-08-19T09:42:05;23.92;;;21.42;;
13660;SDS011;6903;49.480;11.102;2022-08-19T09:44:36;25.23;;;22.67;;
13660;SDS011;6903;49.480;11.102;2022-08-19T09:47:02;25.85;;;23.15;;
13660;SDS011;6903;49.480;11.102;2022-08-19T09:49:28;25.30;;;22.65;;
13660;SDS011;6903;49.480;11.102;2022-08-19T09:51:53;23.45;;;21.05;;
13660;SDS011;6903;49.480;11.102;2022-08-19T09:54:20;21.50;;;19.38;;
13660;SDS011;6903;49.480;11.102;2022-08-19T09:56:46;22.25;;;19.95;;
13660;SDS011;6903;49.480;11.102;2022-08-19T09:59:11;18.13;;;16.33;;
13660;SDS011;6903;49.480;11.102;2022-08-19T10:01:37;23.55;;;21.08;;
13660;SDS011;6903;49.480;11.102;2022-08-19T10:04:03;22.10;;;19.75;;
13660;SDS011;6903;49.480;11.102;2022-08-19T10:06:33;26.52;;;22.27;;
13660;SDS011;6903;49.480;11.102;2022-08-19T10:08:59;22.27;;;19.98;;
13660;SDS011;6903;49.480;11.102;2022-08-19T10:11:25;23.48;;;21.08;;
13660;SDS011;6903;49.480;11.102;2022-08-19T10:13:51;23.65;;;20.90;;
13660;SDS011;6903;49.480;11.102;2022-08-19T10:16:18;21.80;;;19.60;;
13660;SDS011;6903;49.480;11.102;2022-08-19T10:18:47;23.50;;;21.00;;
13660;SDS011;6903;49.480;11.102;2022-08-19T10:21:15;22.52;;;20.25;;
13660;SDS011;6903;49.480;11.102;2022-08-19T10:23:45;20.25;;;18.17;;
13660;SDS011;6903;49.480;11.102;2022-08-19T10:26:13;23.17;;;20.80;;
13660;SDS011;6903;49.480;11.102;2022-08-19T10:28:40;22.33;;;19.90;;
13660;SDS011;6903;49.480;11.102;2022-08-19T10:31:10;22.45;;;20.05;;
13660;SDS011;6903;49.480;11.102;2022-08-19T10:33:39;22.35;;;19.95;;
13660;SDS011;6903;49.480;11.102;2022-08-19T10:36:16;24.00;;;21.52;;
13660;SDS011;6903;49.480;11.102;2022-08-19T10:38:44;20.83;;;17.98;;
13660;SDS011;6903;49.480;11.102;2022-08-19T10:41:18;20.70;;;18.60;;
13660;SDS011;6903;49.480;11.102;2022-08-19T10:43:49;21.70;;;19.50;;
13660;SDS011;6903;49.480;11.102;2022-08-19T10:46:17;22.80;;;20.50;;
13660;SDS011;6903;49.480;11.102;2022-08-19T10:48:43;22.02;;;19.92;;
13660;SDS011;6903;49.480;11.102;2022-08-19T10:51:10;20.70;;;18.38;;
13660;SDS011;6903;49.480;11.102;2022-08-19T10:53:55;22.30;;;19.90;;
13660;SDS011;6903;49.480;11.102;2022-08-19T10:56:21;21.05;;;18.85;;
13660;SDS011;6903;49.480;11.102;2022-08-19T10:59:05;21.02;;;18.65;;
13660;SDS011;6903;49.480;11.102;2022-08-19T11:01:32;20.27;;;18.30;;
13660;SDS011;6903;49.480;11.102;2022-08-19T11:04:02;19.40;;;17.60;;
13660;SDS011;6903;49.480;11.102;2022-08-19T11:06:29;20.52;;;18.52;;
13660;SDS011;6903;49.480;11.102;2022-08-19T11:08:56;17.40;;;15.70;;
13660;SDS011;6903;49.480;11.102;2022-08-19T11:11:22;21.48;;;19.38;;
13660;SDS011;6903;49.480;11.102;2022-08-19T11:13:48;19.05;;;17.10;;
13660;SDS011;6903;49.480;11.102;2022-08-19T11:16:19;20.65;;;18.48;;
13660;SDS011;6903;49.480;11.102;2022-08-19T11:18:50;21.58;;;19.38;;
13660;SDS011;6903;49.480;11.102;2022-08-19T11:21:18;20.88;;;18.88;;
13660;SDS011;6903;49.480;11.102;2022-08-19T11:23:53;22.23;;;17.63;;
13660;SDS011;6903;49.480;11.102;2022-08-19T11:26:20;19.48;;;17.65;;
13660;SDS011;6903;49.480;11.102;2022-08-19T11:28:47;18.92;;;17.15;;
13660;SDS011;6903;49.480;11.102;2022-08-19T11:31:14;18.85;;;17.05;;
13660;SDS011;6903;49.480;11.102;2022-08-19T11:33:41;19.13;;;17.23;;
13660;SDS011;6903;49.480;11.102;2022-08-19T11:36:07;19.23;;;17.33;;
13660;SDS011;6903;49.480;11.102;2022-08-19T11:38:33;19.38;;;17.58;;
13660;SDS011;6903;49.480;11.102;2022-08-19T11:41:01;21.35;;;19.17;;
13660;SDS011;6903;49.480;11.102;2022-08-19T11:43:29;22.40;;;20.17;;
13660;SDS011;6903;49.480;11.102;2022-08-19T11:45:55;24.38;;;21.80;;
13660;SDS011;6903;49.480;11.102;2022-08-19T11:48:21;25.02;;;22.23;;
13660;SDS011;6903;49.480;11.102;2022-08-19T11:50:51;26.33;;;23.42;;
13660;SDS011;6903;49.480;11.102;2022-08-19T11:53:20;21.95;;;19.75;;
13660;SDS011;6903;49.480;11.102;2022-08-19T11:55:45;27.00;;;24.30;;
13660;SDS011;6903;49.480;11.102;2022-08-19T11:58:12;23.08;;;20.88;;
13660;SDS011;6903;49.480;11.102;2022-08-19T12:00:39;28.42;;;25.40;;
13660;SDS011;6903;49.480;11.102;2022-08-19T12:03:05;24.52;;;22.08;;
13660;SDS011;6903;49.480;11.102;2022-08-19T12:05:30;29.27;;;26.38;;
13660;SDS011;6903;49.480;11.102;2022-08-19T12:07:55;25.33;;;22.75;;
13660;SDS011;6903;49.480;11.102;2022-08-19T12:10:21;30.02;;;27.10;;
13660;SDS011;6903;49.480;11.102;2022-08-19T12:12:47;26.10;;;23.35;;
13660;SDS011;6903;49.480;11.102;2022-08-19T12:15:13;26.17;;;23.52;;
13660;SDS011;6903;49.480;11.102;2022-08-19T12:17:39;27.52;;;24.50;;
13660;SDS011;6903;49.480;11.102;2022-08-19T12:20:05;27.48;;;24.33;;
13660;SDS011;6903;49.480;11.102;2022-08-19T12:22:32;24.85;;;22.30;;
13660;SDS011;6903;49.480;11.102;2022-08-19T12:24:57;26.85;;;24.27;;
13660;SDS011;6903;49.480;11.102;2022-08-19T12:27:23;25.20;;;22.83;;
13660;SDS011;6903;49.480;11.102;2022-08-19T12:29:48;25.73;;;23.02;;
13660;SDS011;6903;49.480;11.102;2022-08-19T12:32:14;25.42;;;22.80;;
13660;SDS011;6903;49.480;11.102;2022-08-19T12:34:40;21.88;;;19.73;;
13660;SDS011;6903;49.480;11.102;2022-08-19T12:37:06;23.83;;;21.52;;
13660;SDS011;6903;49.480;11.102;2022-08-19T12:39:36;24.50;;;22.10;;
13660;SDS011;6903;49.480;11.102;2022-08-19T12:42:03;21.98;;;19.73;;
13660;SDS011;6903;49.480;11.102;2022-08-19T12:44:29;24.42;;;22.00;;
13660;SDS011;6903;49.480;11.102;2022-08-19T12:46:55;24.88;;;22.35;;
13660;SDS011;6903;49.480;11.102;2022-08-19T12:49:21;24.95;;;22.48;;
13660;SDS011;6903;49.480;11.102;2022-08-19T12:51:47;28.02;;;25.00;;
13660;SDS011;6903;49.480;11.102;2022-08-19T12:54:12;29.70;;;26.65;;
13660;SDS011;6903;49.480;11.102;2022-08-19T12:56:37;28.90;;;25.77;;
13660;SDS011;6903;49.480;11.102;2022-08-19T12:59:03;29.42;;;26.50;;
13660;SDS011;6903;49.480;11.102;2022-08-19T13:01:29;35.70;;;31.65;;
13660;SDS011;6903;49.480;11.102;2022-08-19T13:03:57;34.97;;;31.25;;
13660;SDS011;6903;49.480;11.102;2022-08-19T13:06:24;36.92;;;32.92;;
13660;SDS011;6903;49.480;11.102;2022-08-19T13:08:50;29.25;;;26.15;;
13660;SDS011;6903;49.480;11.102;2022-08-19T13:11:16;34.65;;;30.95;;
13660;SDS011;6903;49.480;11.102;2022-08-19T13:13:44;30.45;;;27.45;;
13660;SDS011;6903;49.480;11.102;2022-08-19T13:16:11;41.90;;;37.20;;
13660;SDS011;6903;49.480;11.102;2022-08-19T13:18:37;41.70;;;35.50;;
13660;SDS011;6903;49.480;11.102;2022-08-19T13:21:05;40.20;;;35.20;;
13660;SDS011;6903;49.480;11.102;2022-08-19T13:23:32;42.42;;;37.08;;
13660;SDS011;6903;49.480;11.102;2022-08-19T13:25:59;31.20;;;27.83;;
13660;SDS011;6903;49.480;11.102;2022-08-19T13:28:25;44.60;;;37.78;;
13660;SDS011;6903;49.480;11.102;2022-08-19T13:30:51;44.97;;;37.83;;
13660;SDS011;6903;49.480;11.102;2022-08-19T13:33:35;52.33;;;42.78;;
13660;SDS011;6903;49.480;11.102;2022-08-19T13:36:00;52.28;;;41.58;;
13660;SDS011;6903;49.480;11.102;2022-08-19T13:38:26;54.30;;;43.47;;
13660;SDS011;6903;49.480;11.102;2022-08-19T13:40:53;36.75;;;32.58;;
13660;SDS011;6903;49.480;11.102;2022-08-19T13:43:21;34.85;;;30.50;;
13660;SDS011;6903;49.480;11.102;2022-08-19T13:45:48;31.95;;;28.70;;
13660;SDS011;6903;49.480;11.102;2022-08-19T13:48:15;35.40;;;31.50;;
13660;SDS011;6903;49.480;11.102;2022-08-19T13:50:42;28.70;;;25.70;;
13660;SDS011;6903;49.480;11.102;2022-08-19T13:53:10;32.42;;;28.92;;
13660;SDS011;6903;49.480;11.102;2022-08-19T13:55:39;32.55;;;29.10;;
13660;SDS011;6903;49.480;11.102;2022-08-19T13:58:06;33.60;;;29.83;;
13660;SDS011;6903;49.480;11.102;2022-08-19T14:00:33;32.63;;;29.15;;
13660;SDS011;6903;49.480;11.102;2022-08-19T14:03:00;41.13;;;33.92;;
13660;SDS011;6903;49.480;11.102;2022-08-19T14:05:27;29.80;;;26.52;;
13660;SDS011;6903;49.480;11.102;2022-08-19T14:07:53;37.53;;;32.22;;
13660;SDS011;6903;49.480;11.102;2022-08-19T14:10:19;41.70;;;35.47;;
13660;SDS011;6903;49.480;11.102;2022-08-19T14:12:45;40.85;;;32.60;;
13660;SDS011;6903;49.480;11.102;2022-08-19T14:15:12;30.50;;;26.35;;
13660;SDS011;6903;49.480;11.102;2022-08-19T14:17:38;36.58;;;30.98;;
13660;SDS011;6903;49.480;11.102;2022-08-19T14:20:06;29.52;;;25.40;;
13660;SDS011;6903;49.480;11.102;2022-08-19T14:22:34;27.27;;;24.17;;
13660;SDS011;6903;49.480;11.102;2022-08-19T14:25:05;28.85;;;24.73;;
13660;SDS011;6903;49.480;11.102;2022-08-19T14:27:36;29.75;;;23.35;;
13660;SDS011;6903;49.480;11.102;2022-08-19T14:30:04;28.10;;;22.17;;